Main page
METAR-TAF:

METAR-TAF

Airports :

MoD Boscombe Down

Boscombe Down, England

latitude: 51-10N, longitude: 001-45W, elevation: 124 m

Current weather observation

The report was made 22 minutes ago, at 12:20 UTC
Wind 4 kt from the East/Northeast
Temperature 22°C
Humidity 53%
Pressure 1017 hPa
Visibility 10 km or more
no clouds below 1500 m and no cumulonimbus

METAR: EGDM 211220Z 07004KT CAVOK 22/12 Q1017 NOSIG RMK BLU BLU

Time: 13:42 (12:42 UTC)

Forecast

The report was made 1 hour and 55 minutes ago, at 10:47 UTC
Forecast valid from 21 at 12 UTC to 21 at 18 UTC
Wind 4 kt from variable directions
Visibility 10 km or more
no clouds below 1500 m and no cumulonimbus

TAF: EGDM 211047Z 2112/2118 VRB04KT CAVOK

Weather observations and forecasts of more than 4000 airports (METAR and TAF reports).

The available stations are represented by yellow and red dots on the map.

Hover mouse over dot to see the name of the station.

Then click to see weather observations and forecasts.

To change the map : click on the green buttons with a black cross to zoom in, on the green button with a dash to zoom out, or on the green arrows for adjacent maps.


METAR-TAF: